sensor_id;sensor_type;location;lat;lon;timestamp;pressure;altitude;pressure_sealevel;temperature;humidity
31771;BME280;18343;50.152;8.182;2022-07-03T00:02:05;97655.00;;;14.36;97.43
31771;BME280;18343;50.152;8.182;2022-07-03T00:04:32;97653.19;;;14.17;98.33
31771;BME280;18343;50.152;8.182;2022-07-03T00:06:59;97651.09;;;13.99;99.96
31771;BME280;18343;50.152;8.182;2022-07-03T00:09:26;97650.69;;;13.69;100.00
31771;BME280;18343;50.152;8.182;2022-07-03T00:11:55;97655.25;;;14.15;97.67
31771;BME280;18343;50.152;8.182;2022-07-03T00:14:22;97662.03;;;13.18;100.00
31771;BME280;18343;50.152;8.182;2022-07-03T00:16:50;97651.72;;;13.48;100.00
31771;BME280;18343;50.152;8.182;2022-07-03T00:19:17;97659.06;;;13.00;100.00
31771;BME280;18343;50.152;8.182;2022-07-03T00:21:46;97659.50;;;13.10;100.00
31771;BME280;18343;50.152;8.182;2022-07-03T00:24:22;97654.97;;;13.17;100.00
31771;BME280;18343;50.152;8.182;2022-07-03T00:26:52;97637.78;;;13.71;100.00
31771;BME280;18343;50.152;8.182;2022-07-03T00:29:23;97642.16;;;13.52;100.00
31771;BME280;18343;50.152;8.182;2022-07-03T00:31:53;97642.28;;;15.08;90.14
31771;BME280;18343;50.152;8.182;2022-07-03T00:34:20;97640.72;;;14.87;89.63
31771;BME280;18343;50.152;8.182;2022-07-03T00:36:51;97642.94;;;14.32;93.00
31771;BME280;18343;50.152;8.182;2022-07-03T00:39:19;97645.06;;;14.04;93.57
31771;BME280;18343;50.152;8.182;2022-07-03T00:41:46;97642.16;;;13.99;93.57
31771;BME280;18343;50.152;8.182;2022-07-03T00:44:13;97645.09;;;13.77;94.80
31771;BME280;18343;50.152;8.182;2022-07-03T00:46:46;97652.38;;;13.90;93.77
31771;BME280;18343;50.152;8.182;2022-07-03T00:49:19;97636.13;;;14.03;92.43
31771;BME280;18343;50.152;8.182;2022-07-03T00:51:51;97638.66;;;13.85;94.23
31771;BME280;18343;50.152;8.182;2022-07-03T00:54:21;97636.13;;;13.70;97.28
31771;BME280;18343;50.152;8.182;2022-07-03T00:56:51;97640.94;;;13.88;94.78
31771;BME280;18343;50.152;8.182;2022-07-03T00:59:21;97631.75;;;13.96;95.27
31771;BME280;18343;50.152;8.182;2022-07-03T01:01:56;97628.66;;;13.85;95.64
31771;BME280;18343;50.152;8.182;2022-07-03T01:04:36;97637.41;;;13.87;95.44
31771;BME280;18343;50.152;8.182;2022-07-03T01:07:12;97642.34;;;13.44;98.47
31771;BME280;18343;50.152;8.182;2022-07-03T01:09:52;97636.13;;;13.44;97.62
31771;BME280;18343;50.152;8.182;2022-07-03T01:12:27;97641.75;;;13.55;
31771;BME280;18343;50.152;8.182;2022-07-03T01:15:08;97634.06;;;13.52;98.94
31771;BME280;18343;50.152;8.182;2022-07-03T01:17:42;97633.22;;;13.59;97.91
31771;BME280;18343;50.152;8.182;2022-07-03T01:20:21;97639.53;;;12.98;100.00
31771;BME280;18343;50.152;8.182;2022-07-03T01:22:57;97630.03;;;13.15;100.00
31771;BME280;18343;50.152;8.182;2022-07-03T01:25:39;97622.38;;;13.26;99.78
31771;BME280;18343;50.152;8.182;2022-07-03T01:28:11;97614.94;;;13.47;99.67
31771;BME280;18343;50.152;8.182;2022-07-03T01:30:43;97614.31;;;13.39;99.25
31771;BME280;18343;50.152;8.182;2022-07-03T01:33:15;97616.91;;;12.99;100.00
31771;BME280;18343;50.152;8.182;2022-07-03T01:35:52;97616.56;;;13.29;99.65
31771;BME280;18343;50.152;8.182;2022-07-03T01:38:28;97613.47;;;13.32;100.00
31771;BME280;18343;50.152;8.182;2022-07-03T01:40:59;97607.84;;;13.33;99.45
31771;BME280;18343;50.152;8.182;2022-07-03T01:43:30;97603.50;;;13.39;99.55
31771;BME280;18343;50.152;8.182;2022-07-03T01:46:00;97599.34;;;13.43;99.74
31771;BME280;18343;50.152;8.182;2022-07-03T01:48:30;97598.91;;;13.46;99.92
31771;BME280;18343;50.152;8.182;2022-07-03T01:50:59;97592.69;;;13.52;99.39
31771;BME280;18343;50.152;8.182;2022-07-03T01:53:28;97590.41;;;13.29;100.00
31771;BME280;18343;50.152;8.182;2022-07-03T01:55:59;97601.47;;;12.86;100.00
31771;BME280;18343;50.152;8.182;2022-07-03T01:58:27;97607.28;;;12.77;100.00
31771;BME280;18343;50.152;8.182;2022-07-03T02:01:15;97605.72;;;13.15;100.00
31771;BME280;18343;50.152;8.182;2022-07-03T02:03:54;97608.88;;;12.65;100.00
31771;BME280;18343;50.152;8.182;2022-07-03T02:06:36;97607.31;;;12.83;100.00
31771;BME280;18343;50.152;8.182;2022-07-03T02:09:08;97608.53;;;12.87;100.00
31771;BME280;18343;50.152;8.182;2022-07-03T02:11:41;97603.78;;;12.89;100.00
31771;BME280;18343;50.152;8.182;2022-07-03T02:14:13;97604.44;;;12.98;100.00
31771;BME280;18343;50.152;8.182;2022-07-03T02:16:51;97602.06;;;12.69;100.00
31771;BME280;18343;50.152;8.182;2022-07-03T02:19:27;97604.41;;;12.85;100.00
31771;BME280;18343;50.152;8.182;2022-07-03T02:21:57;97595.69;;;12.89;100.00
31771;BME280;18343;50.152;8.182;2022-07-03T02:24:27;97608.97;;;12.91;100.00
31771;BME280;18343;50.152;8.182;2022-07-03T02:27:03;97607.50;;;12.88;100.00
31771;BME280;18343;50.152;8.182;2022-07-03T02:29:35;97609.75;;;12.72;100.00
31771;BME280;18343;50.152;8.182;2022-07-03T02:32:06;97605.06;;;12.46;100.00
31771;BME280;18343;50.152;8.182;2022-07-03T02:34:38;97603.88;;;12.62;100.00
31771;BME280;18343;50.152;8.182;2022-07-03T02:37:15;97604.75;;;12.69;100.00
31771;BME280;18343;50.152;8.182;2022-07-03T02:39:49;97609.13;;;12.70;100.00
31771;BME280;18343;50.152;8.182;2022-07-03T02:42:29;97613.91;;;12.74;100.00
31771;BME280;18343;50.152;8.182;2022-07-03T02:45:01;97604.00;;;12.40;100.00
31771;BME280;18343;50.152;8.182;2022-07-03T02:47:37;97601.31;;;12.40;100.00
31771;BME280;18343;50.152;8.182;2022-07-03T02:50:11;97602.22;;;12.54;100.00
31771;BME280;18343;50.152;8.182;2022-07-03T02:52:58;97597.84;;;12.60;100.00
31771;BME280;18343;50.152;8.182;2022-07-03T02:55:40;97604.03;;;12.47;100.00
31771;BME280;18343;50.152;8.182;2022-07-03T02:58:37;97605.94;;;12.53;100.00
31771;BME280;18343;50.152;8.182;2022-07-03T03:01:13;97606.22;;;12.71;100.00
31771;BME280;18343;50.152;8.182;2022-07-03T03:03:50;97617.06;;;12.91;100.00
31771;BME280;18343;50.152;8.182;2022-07-03T03:06:22;97612.28;;;12.86;100.00
31771;BME280;18343;50.152;8.182;2022-07-03T03:08:59;97612.06;;;12.88;100.00
31771;BME280;18343;50.152;8.182;2022-07-03T03:11:36;97624.09;;;12.79;100.00
31771;BME280;18343;50.152;8.182;2022-07-03T03:14:12;97623.44;;;11.95;100.00
31771;BME280;18343;50.152;8.182;2022-07-03T03:16:46;97621.91;;;11.85;100.00
31771;BME280;18343;50.152;8.182;2022-07-03T03:19:14;97625.72;;;12.26;100.00
31771;BME280;18343;50.152;8.182;2022-07-03T03:21:54;97626.59;;;12.39;100.00
31771;BME280;18343;50.152;8.182;2022-07-03T03:24:24;97622.00;;;12.33;100.00
31771;BME280;18343;50.152;8.182;2022-07-03T03:26:52;97633.81;;;12.32;100.00
31771;BME280;18343;50.152;8.182;2022-07-03T03:29:21;97634.47;;;12.34;100.00
31771;BME280;18343;50.152;8.182;2022-07-03T03:31:48;97634.47;;;12.34;100.00
31771;BME280;18343;50.152;8.182;2022-07-03T03:34:16;97640.50;;;12.36;100.00
31771;BME280;18343;50.152;8.182;2022-07-03T03:36:44;97643.81;;;12.38;100.00
31771;BME280;18343;50.152;8.182;2022-07-03T03:39:12;97645.28;;;12.41;100.00
31771;BME280;18343;50.152;8.182;2022-07-03T03:41:39;97638.28;;;12.46;100.00
31771;BME280;18343;50.152;8.182;2022-07-03T03:44:07;97643.88;;;12.45;100.00
31771;BME280;18343;50.152;8.182;2022-07-03T03:46:35;97637.41;;;12.39;100.00
31771;BME280;18343;50.152;8.182;2022-07-03T03:49:02;97644.09;;;12.50;100.00
31771;BME280;18343;50.152;8.182;2022-07-03T03:51:29;97641.41;;;12.50;100.00
31771;BME280;18343;50.152;8.182;2022-07-03T03:53:57;97637.03;;;12.49;100.00
31771;BME280;18343;50.152;8.182;2022-07-03T03:56:24;97642.25;;;12.50;100.00
31771;BME280;18343;50.152;8.182;2022-07-03T03:58:51;97649.75;;;12.20;100.00
31771;BME280;18343;50.152;8.182;2022-07-03T04:01:18;97647.94;;;12.00;100.00
31771;BME280;18343;50.152;8.182;2022-07-03T04:03:47;97646.06;;;12.28;100.00
31771;BME280;18343;50.152;8.182;2022-07-03T04:06:14;97645.63;;;12.31;100.00
31771;BME280;18343;50.152;8.182;2022-07-03T04:08:41;97643.78;;;12.32;100.00
31771;BME280;18343;50.152;8.182;2022-07-03T04:11:09;97641.06;;;12.32;100.00
31771;BME280;18343;50.152;8.182;2022-07-03T04:13:36;97640.03;;;12.33;100.00
31771;BME280;18343;50.152;8.182;2022-07-03T04:16:04;97631.97;;;12.33;100.00
31771;BME280;18343;50.152;8.182;2022-07-03T04:18:31;97639.59;;;12.23;100.00
31771;BME280;18343;50.152;8.182;2022-07-03T04:21:00;97634.63;;;12.26;100.00
31771;BME280;18343;50.152;8.182;2022-07-03T04:23:27;97633.88;;;12.39;100.00
31771;BME280;18343;50.152;8.182;2022-07-03T04:25:54;97636.59;;;12.45;100.00
31771;BME280;18343;50.152;8.182;2022-07-03T04:28:22;97628.38;;;12.60;100.00
31771;BME280;18343;50.152;8.182;2022-07-03T04:30:49;97628.75;;;12.50;100.00
31771;BME280;18343;50.152;8.182;2022-07-03T04:33:16;97632.91;;;12.53;100.00
31771;BME280;18343;50.152;8.182;2022-07-03T04:35:43;97633.84;;;12.73;100.00
31771;BME280;18343;50.152;8.182;2022-07-03T04:38:12;97633.91;;;12.45;100.00
31771;BME280;18343;50.152;8.182;2022-07-03T04:40:39;97633.66;;;12.81;100.00
31771;BME280;18343;50.152;8.182;2022-07-03T04:43:06;97629.66;;;12.71;100.00
31771;BME280;18343;50.152;8.182;2022-07-03T04:45:33;97621.09;;;12.61;100.00
31771;BME280;18343;50.152;8.182;2022-07-03T04:48:00;97635.13;;;12.84;100.00
31771;BME280;18343;50.152;8.182;2022-07-03T04:50:28;97634.66;;;12.74;100.00
31771;BME280;18343;50.152;8.182;2022-07-03T04:52:55;97633.13;;;13.06;100.00
31771;BME280;18343;50.152;8.182;2022-07-03T04:55:24;97632.34;;;13.18;100.00
31771;BME280;18343;50.152;8.182;2022-07-03T04:57:51;97637.19;;;12.88;100.00
31771;BME280;18343;50.152;8.182;2022-07-03T05:00:18;97645.94;;;12.97;100.00
31771;BME280;18343;50.152;8.182;2022-07-03T05:02:45;97650.84;;;12.74;100.00
31771;BME280;18343;50.152;8.182;2022-07-03T05:05:12;97643.03;;;12.85;100.00
31771;BME280;18343;50.152;8.182;2022-07-03T05:07:39;97645.63;;;13.20;100.00
31771;BME280;18343;50.152;8.182;2022-07-03T05:10:08;97649.63;;;13.44;100.00
31771;BME280;18343;50.152;8.182;2022-07-03T05:12:36;97654.03;;;13.58;100.00
31771;BME280;18343;50.152;8.182;2022-07-03T05:15:04;97658.78;;;13.69;100.00
31771;BME280;18343;50.152;8.182;2022-07-03T05:17:33;97650.06;;;13.74;100.00
31771;BME280;18343;50.152;8.182;2022-07-03T05:20:01;97656.53;;;13.93;100.00
31771;BME280;18343;50.152;8.182;2022-07-03T05:22:46;97655.69;;;14.12;100.00
31771;BME280;18343;50.152;8.182;2022-07-03T05:25:13;97652.72;;;14.27;100.00
31771;BME280;18343;50.152;8.182;2022-07-03T05:27:41;97658.56;;;14.43;100.00
31771;BME280;18343;50.152;8.182;2022-07-03T05:30:10;97650.22;;;14.51;100.00
31771;BME280;18343;50.152;8.182;2022-07-03T05:32:37;97647.47;;;14.71;100.00
31771;BME280;18343;50.152;8.182;2022-07-03T05:35:06;97644.28;;;14.81;100.00
31771;BME280;18343;50.152;8.182;2022-07-03T05:37:33;97647.59;;;14.89;100.00
31771;BME280;18343;50.152;8.182;2022-07-03T05:40:01;97639.69;;;15.26;100.00
31771;BME280;18343;50.152;8.182;2022-07-03T05:42:28;97642.41;;;15.26;100.00
31771;BME280;18343;50.152;8.182;2022-07-03T05:44:56;97642.44;;;15.57;100.00
31771;BME280;18343;50.152;8.182;2022-07-03T05:47:23;97637.75;;;15.71;99.86
31771;BME280;18343;50.152;8.182;2022-07-03T05:49:51;97646.28;;;15.75;98.35
31771;BME280;18343;50.152;8.182;2022-07-03T05:52:18;97638.91;;;16.07;99.44
31771;BME280;18343;50.152;8.182;2022-07-03T05:54:46;97632.63;;;16.13;98.62
31771;BME280;18343;50.152;8.182;2022-07-03T05:57:13;97632.63;;;16.49;95.99
31771;BME280;18343;50.152;8.182;2022-07-03T05:59:40;97633.25;;;16.70;96.55
31771;BME280;18343;50.152;8.182;2022-07-03T06:02:09;97627.66;;;17.01;94.12
31771;BME280;18343;50.152;8.182;2022-07-03T06:04:36;97638.69;;;17.06;91.07
31771;BME280;18343;50.152;8.182;2022-07-03T06:07:03;97632.78;;;17.39;92.63
31771;BME280;18343;50.152;8.182;2022-07-03T06:09:31;97626.88;;;17.72;91.49
31771;BME280;18343;50.152;8.182;2022-07-03T06:11:58;97624.78;;;17.98;88.91
31771;BME280;18343;50.152;8.182;2022-07-03T06:14:25;97634.00;;;18.08;89.05
31771;BME280;18343;50.152;8.182;2022-07-03T06:16:52;97625.88;;;18.32;84.29
31771;BME280;18343;50.152;8.182;2022-07-03T06:19:21;97628.34;;;18.56;86.26
31771;BME280;18343;50.152;8.182;2022-07-03T06:21:48;97630.75;;;18.93;85.18
31771;BME280;18343;50.152;8.182;2022-07-03T06:24:15;97627.09;;;18.99;79.60
31771;BME280;18343;50.152;8.182;2022-07-03T06:26:42;97626.16;;;19.22;83.45
31771;BME280;18343;50.152;8.182;2022-07-03T06:29:09;97630.09;;;19.54;80.78
31771;BME280;18343;50.152;8.182;2022-07-03T06:31:37;97625.06;;;19.80;75.72
31771;BME280;18343;50.152;8.182;2022-07-03T06:34:04;97630.81;;;19.95;69.10
31771;BME280;18343;50.152;8.182;2022-07-03T06:36:32;97627.31;;;20.16;69.41
31771;BME280;18343;50.152;8.182;2022-07-03T06:38:59;97627.53;;;20.32;71.11
31771;BME280;18343;50.152;8.182;2022-07-03T06:41:27;97634.59;;;20.44;68.25
31771;BME280;18343;50.152;8.182;2022-07-03T06:43:54;97636.72;;;20.59;66.60
31771;BME280;18343;50.152;8.182;2022-07-03T06:46:21;97634.84;;;20.81;66.93
31771;BME280;18343;50.152;8.182;2022-07-03T06:48:48;97634.28;;;21.01;67.13
31771;BME280;18343;50.152;8.182;2022-07-03T06:51:16;97634.72;;;21.15;65.60
31771;BME280;18343;50.152;8.182;2022-07-03T06:53:44;97637.78;;;21.18;67.99
31771;BME280;18343;50.152;8.182;2022-07-03T06:56:11;97637.00;;;21.45;68.05
31771;BME280;18343;50.152;8.182;2022-07-03T06:58:38;97643.00;;;21.69;66.52
31771;BME280;18343;50.152;8.182;2022-07-03T07:01:06;97635.41;;;21.76;65.49
31771;BME280;18343;50.152;8.182;2022-07-03T07:03:33;97636.84;;;22.10;64.98
31771;BME280;18343;50.152;8.182;2022-07-03T07:06:00;97636.41;;;21.96;64.23
31771;BME280;18343;50.152;8.182;2022-07-03T07:08:28;97638.50;;;21.84;62.33
31771;BME280;18343;50.152;8.182;2022-07-03T07:10:56;97644.28;;;22.15;60.75
31771;BME280;18343;50.152;8.182;2022-07-03T07:13:23;97631.72;;;22.61;59.28
31771;BME280;18343;50.152;8.182;2022-07-03T07:15:51;97643.59;;;22.35;59.03
31771;BME280;18343;50.152;8.182;2022-07-03T07:18:18;97637.91;;;22.41;59.02
31771;BME280;18343;50.152;8.182;2022-07-03T07:20:45;97632.47;;;22.51;58.47
31771;BME280;18343;50.152;8.182;2022-07-03T07:23:13;97634.91;;;22.48;58.46
31771;BME280;18343;50.152;8.182;2022-07-03T07:25:40;97635.50;;;23.02;58.50
31771;BME280;18343;50.152;8.182;2022-07-03T07:28:08;97636.94;;;22.62;56.78
31771;BME280;18343;50.152;8.182;2022-07-03T07:30:36;97635.84;;;23.11;56.37
31771;BME280;18343;50.152;8.182;2022-07-03T07:33:04;97642.19;;;23.26;54.90
31771;BME280;18343;50.152;8.182;2022-07-03T07:35:31;97643.19;;;23.00;54.75
31771;BME280;18343;50.152;8.182;2022-07-03T07:37:58;97641.59;;;23.14;55.38
31771;BME280;18343;50.152;8.182;2022-07-03T07:40:26;97643.22;;;23.10;52.71
31771;BME280;18343;50.152;8.182;2022-07-03T07:42:53;97645.16;;;23.10;49.02
31771;BME280;18343;50.152;8.182;2022-07-03T07:45:21;97649.50;;;22.95;48.58
31771;BME280;18343;50.152;8.182;2022-07-03T07:47:49;97651.59;;;22.83;48.28
31771;BME280;18343;50.152;8.182;2022-07-03T07:50:16;97649.31;;;22.75;49.14
31771;BME280;18343;50.152;8.182;2022-07-03T07:52:43;97652.00;;;23.07;50.07
31771;BME280;18343;50.152;8.182;2022-07-03T07:55:10;97649.44;;;23.53;49.50
31771;BME280;18343;50.152;8.182;2022-07-03T07:57:39;97654.66;;;23.54;49.25
31771;BME280;18343;50.152;8.182;2022-07-03T08:00:09;97646.72;;;23.63;47.64
31771;BME280;18343;50.152;8.182;2022-07-03T08:02:39;97650.06;;;23.90;47.06
31771;BME280;18343;50.152;8.182;2022-07-03T08:05:24;97648.41;;;23.89;47.11
31771;BME280;18343;50.152;8.182;2022-07-03T08:08:06;97646.78;;;24.19;46.85
31771;BME280;18343;50.152;8.182;2022-07-03T08:10:38;97646.53;;;24.05;46.33
31771;BME280;18343;50.152;8.182;2022-07-03T08:13:07;97638.81;;;24.38;46.05
31771;BME280;18343;50.152;8.182;2022-07-03T08:15:35;97642.94;;;24.00;44.42
31771;BME280;18343;50.152;8.182;2022-07-03T08:18:04;97640.16;;;24.76;44.54
31771;BME280;18343;50.152;8.182;2022-07-03T08:20:33;97639.91;;;24.52;45.13
31771;BME280;18343;50.152;8.182;2022-07-03T08:23:01;97645.09;;;24.84;45.28
31771;BME280;18343;50.152;8.182;2022-07-03T08:25:29;97637.44;;;24.55;44.77
31771;BME280;18343;50.152;8.182;2022-07-03T08:27:57;97637.44;;;24.45;44.43
31771;BME280;18343;50.152;8.182;2022-07-03T08:30:25;97643.97;;;24.95;43.77
31771;BME280;18343;50.152;8.182;2022-07-03T08:32:57;97636.28;;;24.87;43.35
31771;BME280;18343;50.152;8.182;2022-07-03T08:35:32;97633.59;;;24.06;46.05
31771;BME280;18343;50.152;8.182;2022-07-03T08:38:05;97640.97;;;24.66;44.80
31771;BME280;18343;50.152;8.182;2022-07-03T08:40:40;97647.03;;;24.78;43.97
31771;BME280;18343;50.152;8.182;2022-07-03T08:43:12;97647.53;;;24.90;43.42
31771;BME280;18343;50.152;8.182;2022-07-03T08:45:44;97651.13;;;24.86;40.80
31771;BME280;18343;50.152;8.182;2022-07-03T08:48:15;97641.03;;;25.41;41.02
31771;BME280;18343;50.152;8.182;2022-07-03T08:50:52;97641.50;;;25.53;42.09
31771;BME280;18343;50.152;8.182;2022-07-03T08:53:20;97640.41;;;25.54;41.32
31771;BME280;18343;50.152;8.182;2022-07-03T08:55:48;97642.81;;;25.16;42.23
31771;BME280;18343;50.152;8.182;2022-07-03T08:58:17;97649.66;;;25.19;42.52
31771;BME280;18343;50.152;8.182;2022-07-03T09:00:47;97648.53;;;25.20;41.61
31771;BME280;18343;50.152;8.182;2022-07-03T09:03:17;97642.00;;;24.90;41.69
31771;BME280;18343;50.152;8.182;2022-07-03T09:05:50;97650.09;;;24.61;42.47
31771;BME280;18343;50.152;8.182;2022-07-03T09:08:23;97634.91;;;24.79;42.53
31771;BME280;18343;50.152;8.182;2022-07-03T09:10:53;97640.75;;;24.37;43.85
31771;BME280;18343;50.152;8.182;2022-07-03T09:13:21;97636.53;;;24.95;42.46
31771;BME280;18343;50.152;8.182;2022-07-03T09:15:49;97646.75;;;24.80;43.87
31771;BME280;18343;50.152;8.182;2022-07-03T09:18:18;97635.69;;;24.90;43.47
31771;BME280;18343;50.152;8.182;2022-07-03T09:21:05;97641.31;;;25.39;45.33
31771;BME280;18343;50.152;8.182;2022-07-03T09:23:40;97638.44;;;24.90;43.56
31771;BME280;18343;50.152;8.182;2022-07-03T09:26:16;97647.63;;;24.35;43.39
31771;BME280;18343;50.152;8.182;2022-07-03T09:28:52;97641.56;;;24.17;43.98
31771;BME280;18343;50.152;8.182;2022-07-03T09:31:36;97641.28;;;23.78;44.50
31771;BME280;18343;50.152;8.182;2022-07-03T09:34:10;97642.88;;;23.64;45.56
31771;BME280;18343;50.152;8.182;2022-07-03T09:36:48;97638.53;;;24.24;44.55
31771;BME280;18343;50.152;8.182;2022-07-03T09:39:27;97641.50;;;24.78;43.11
31771;BME280;18343;50.152;8.182;2022-07-03T09:41:59;97645.75;;;25.30;42.81
31771;BME280;18343;50.152;8.182;2022-07-03T09:44:34;97641.53;;;24.68;43.63
31771;BME280;18343;50.152;8.182;2022-07-03T09:47:15;97641.56;;;24.17;44.23
31771;BME280;18343;50.152;8.182;2022-07-03T09:49:51;97643.19;;;23.93;45.57
31771;BME280;18343;50.152;8.182;2022-07-03T09:52:38;97645.66;;;23.84;44.68
31771;BME280;18343;50.152;8.182;2022-07-03T09:55:18;97647.06;;;24.53;43.30
31771;BME280;18343;50.152;8.182;2022-07-03T09:57:59;97639.00;;;24.97;42.15
31771;BME280;18343;50.152;8.182;2022-07-03T10:00:29;97642.06;;;24.80;42.90
31771;BME280;18343;50.152;8.182;2022-07-03T10:02:59;97646.19;;;24.83;41.04
31771;BME280;18343;50.152;8.182;2022-07-03T10:05:32;97641.63;;;25.27;42.13
31771;BME280;18343;50.152;8.182;2022-07-03T10:08:03;97646.53;;;25.41;41.92
31771;BME280;18343;50.152;8.182;2022-07-03T10:10:33;97647.22;;;25.07;42.42
31771;BME280;18343;50.152;8.182;2022-07-03T10:13:03;97645.03;;;25.04;41.41
31771;BME280;18343;50.152;8.182;2022-07-03T10:15:35;97642.41;;;24.53;43.74
31771;BME280;18343;50.152;8.182;2022-07-03T10:18:08;97642.41;;;24.58;43.32
31771;BME280;18343;50.152;8.182;2022-07-03T10:20:40;97644.25;;;24.88;41.73
31771;BME280;18343;50.152;8.182;2022-07-03T10:23:20;97634.63;;;25.50;40.47
31771;BME280;18343;50.152;8.182;2022-07-03T10:25:51;97631.41;;;25.87;43.94
31771;BME280;18343;50.152;8.182;2022-07-03T10:28:22;97641.81;;;25.46;41.08
31771;BME280;18343;50.152;8.182;2022-07-03T10:30:50;97641.50;;;24.88;40.53
31771;BME280;18343;50.152;8.182;2022-07-03T10:33:18;97635.47;;;25.46;40.97
31771;BME280;18343;50.152;8.182;2022-07-03T10:35:49;97635.75;;;25.99;41.92
31771;BME280;18343;50.152;8.182;2022-07-03T10:38:36;97634.41;;;26.30;38.83
31771;BME280;18343;50.152;8.182;2022-07-03T10:41:16;97633.16;;;26.12;38.04
31771;BME280;18343;50.152;8.182;2022-07-03T10:44:06;97633.84;;;25.94;37.18
31771;BME280;18343;50.152;8.182;2022-07-03T10:46:51;97629.72;;;25.91;38.13
31771;BME280;18343;50.152;8.182;2022-07-03T10:49:28;97627.31;;;26.19;36.65
31771;BME280;18343;50.152;8.182;2022-07-03T10:51:58;97638.19;;;26.68;39.54
31771;BME280;18343;50.152;8.182;2022-07-03T10:54:29;97631.41;;;25.43;40.26
31771;BME280;18343;50.152;8.182;2022-07-03T10:57:15;97627.41;;;26.04;39.67
31771;BME280;18343;50.152;8.182;2022-07-03T11:00:11;97633.59;;;25.90;39.60
31771;BME280;18343;50.152;8.182;2022-07-03T11:02:40;97624.34;;;27.63;36.99
31771;BME280;18343;50.152;8.182;2022-07-03T11:05:17;97617.09;;;27.49;36.05
31771;BME280;18343;50.152;8.182;2022-07-03T11:08:13;97628.56;;;26.66;39.52
31771;BME280;18343;50.152;8.182;2022-07-03T11:10:43;97624.25;;;27.31;36.53
31771;BME280;18343;50.152;8.182;2022-07-03T11:13:18;97612.69;;;26.18;37.00
31771;BME280;18343;50.152;8.182;2022-07-03T11:15:53;97620.00;;;27.15;37.16
31771;BME280;18343;50.152;8.182;2022-07-03T11:18:29;97610.75;;;27.06;34.16
31771;BME280;18343;50.152;8.182;2022-07-03T11:21:30;97613.50;;;28.05;34.39
31771;BME280;18343;50.152;8.182;2022-07-03T11:24:38;97611.25;;;27.50;35.47
31771;BME280;18343;50.152;8.182;2022-07-03T11:27:24;97607.94;;;28.42;31.83
31771;BME280;18343;50.152;8.182;2022-07-03T11:29:58;97598.59;;;28.19;32.03
31771;BME280;18343;50.152;8.182;2022-07-03T11:32:56;97601.47;;;27.95;32.87
31771;BME280;18343;50.152;8.182;2022-07-03T11:35:49;97596.88;;;28.42;30.91
31771;BME280;18343;50.152;8.182;2022-07-03T11:38:22;97592.00;;;28.02;33.02
31771;BME280;18343;50.152;8.182;2022-07-03T11:40:52;97590.16;;;28.29;30.01
31771;BME280;18343;50.152;8.182;2022-07-03T11:43:24;97584.91;;;27.95;28.99
31771;BME280;18343;50.152;8.182;2022-07-03T11:45:52;97576.81;;;28.78;29.67
31771;BME280;18343;50.152;8.182;2022-07-03T11:48:22;97579.44;;;28.09;28.97
31771;BME280;18343;50.152;8.182;2022-07-03T11:50:59;97580.78;;;28.58;29.62
31771;BME280;18343;50.152;8.182;2022-07-03T11:53:29;97572.53;;;27.74;29.42
31771;BME280;18343;50.152;8.182;2022-07-03T11:55:59;97578.94;;;28.53;30.41
31771;BME280;18343;50.152;8.182;2022-07-03T11:58:44;97578.06;;;28.72;28.52
31771;BME280;18343;50.152;8.182;2022-07-03T12:01:29;97582.25;;;28.23;28.84
31771;BME280;18343;50.152;8.182;2022-07-03T12:04:07;97579.88;;;28.62;30.54
31771;BME280;18343;50.152;8.182;2022-07-03T12:06:37;97584.38;;;28.58;30.12
31771;BME280;18343;50.152;8.182;2022-07-03T12:09:20;97574.25;;;28.68;31.90
31771;BME280;18343;50.152;8.182;2022-07-03T12:11:58;97580.16;;;27.82;28.82
31771;BME280;18343;50.152;8.182;2022-07-03T12:14:43;97569.31;;;28.18;29.75
31771;BME280;18343;50.152;8.182;2022-07-03T12:17:14;97564.69;;;28.14;29.77
31771;BME280;18343;50.152;8.182;2022-07-03T12:19:46;97568.34;;;28.88;29.61
31771;BME280;18343;50.152;8.182;2022-07-03T12:22:27;97557.72;;;27.46;30.31
31771;BME280;18343;50.152;8.182;2022-07-03T12:24:58;97566.88;;;28.63;30.97
31771;BME280;18343;50.152;8.182;2022-07-03T12:27:27;97570.38;;;26.86;31.52
31771;BME280;18343;50.152;8.182;2022-07-03T12:30:00;97572.31;;;26.61;32.72
31771;BME280;18343;50.152;8.182;2022-07-03T12:32:28;97572.06;;;26.82;31.94
31771;BME280;18343;50.152;8.182;2022-07-03T12:34:56;97569.97;;;27.40;31.13
31771;BME280;18343;50.152;8.182;2022-07-03T12:37:35;97565.94;;;28.54;31.37
31771;BME280;18343;50.152;8.182;2022-07-03T12:40:07;97558.66;;;28.44;31.19
31771;BME280;18343;50.152;8.182;2022-07-03T12:42:44;97551.88;;;28.50;29.58
31771;BME280;18343;50.152;8.182;2022-07-03T12:45:14;97545.13;;;28.56;29.88
31771;BME280;18343;50.152;8.182;2022-07-03T12:47:42;97553.63;;;28.14;32.16
31771;BME280;18343;50.152;8.182;2022-07-03T12:50:10;97552.13;;;28.21;30.92
31771;BME280;18343;50.152;8.182;2022-07-03T12:52:50;97550.09;;;28.27;30.82
31771;BME280;18343;50.152;8.182;2022-07-03T12:55:26;97549.06;;;27.53;31.41
31771;BME280;18343;50.152;8.182;2022-07-03T12:58:14;97539.38;;;28.07;30.39
31771;BME280;18343;50.152;8.182;2022-07-03T13:01:01;97535.94;;;27.82;30.36
31771;BME280;18343;50.152;8.182;2022-07-03T13:03:31;97545.25;;;27.49;33.47
31771;BME280;18343;50.152;8.182;2022-07-03T13:06:11;97536.31;;;28.41;30.29
31771;BME280;18343;50.152;8.182;2022-07-03T13:08:56;97538.88;;;28.78;30.74
31771;BME280;18343;50.152;8.182;2022-07-03T13:11:31;97530.41;;;28.88;31.58
31771;BME280;18343;50.152;8.182;2022-07-03T13:14:10;97541.31;;;27.74;33.38
31771;BME280;18343;50.152;8.182;2022-07-03T13:16:42;97540.72;;;27.77;32.19
31771;BME280;18343;50.152;8.182;2022-07-03T13:19:12;97531.00;;;28.85;31.80
31771;BME280;18343;50.152;8.182;2022-07-03T13:21:41;97524.06;;;29.74;30.26
31771;BME280;18343;50.152;8.182;2022-07-03T13:24:13;97523.53;;;30.08;28.69